createdAt,value
2019-04-23T00:02:44.664Z,33.76
2019-04-23T00:05:29.580Z,33.77
2019-04-23T00:08:09.611Z,33.92
2019-04-23T00:11:05.257Z,34.04
2019-04-23T00:13:50.332Z,34.13
2019-04-23T00:16:44.779Z,34.27
2019-04-23T00:19:32.706Z,34.34
2019-04-23T00:22:45.154Z,34.44
2019-04-23T00:28:29.921Z,34.54
2019-04-23T00:31:18.270Z,34.60
2019-04-23T00:34:10.973Z,34.77
2019-04-23T00:37:06.486Z,34.80
2019-04-23T00:42:42.315Z,34.95
2019-04-23T00:45:39.893Z,35.02
2019-04-23T00:48:43.950Z,35.11
2019-04-23T00:51:09.289Z,35.05
2019-04-23T00:54:07.298Z,35.15
2019-04-23T00:57:00.776Z,35.23
2019-04-23T00:59:57.753Z,35.36
2019-04-23T01:05:31.217Z,35.56
2019-04-23T01:11:16.779Z,35.61
2019-04-23T01:16:52.550Z,35.46
2019-04-23T01:20:14.781Z,35.63
2019-04-23T01:22:31.813Z,35.77
2019-04-23T01:25:45.444Z,35.73
2019-04-23T01:28:55.796Z,35.81
2019-04-23T01:31:42.074Z,35.82
2019-04-23T01:34:42.343Z,35.91
2019-04-23T01:37:26.764Z,36.00
2019-04-23T01:40:19.192Z,36.06
2019-04-23T01:43:05.667Z,36.10
2019-04-23T01:45:54.671Z,36.10
2019-04-23T01:51:54.872Z,36.20
2019-04-23T01:54:30.548Z,36.17
2019-04-23T01:57:28.826Z,36.16
2019-04-23T02:00:17.282Z,36.14
2019-04-23T02:05:55.799Z,36.29
2019-04-23T02:08:48.519Z,36.38
2019-04-23T02:11:37.668Z,36.54
2019-04-23T02:14:28.183Z,36.51
2019-04-23T02:17:24.921Z,36.62
2019-04-23T02:20:15.939Z,36.71
2019-04-23T02:23:32.656Z,36.75
2019-04-23T02:29:29.871Z,36.83
2019-04-23T02:35:11.726Z,36.81
2019-04-23T02:38:00.746Z,36.88
2019-04-23T02:40:54.981Z,37.10
2019-04-23T02:43:45.409Z,37.07
2019-04-23T02:46:13.217Z,37.12
2019-04-23T02:49:29.098Z,37.22
2019-04-23T02:55:07.981Z,37.32
2019-04-23T02:57:54.095Z,37.45
2019-04-23T03:00:55.209Z,37.40
2019-04-23T03:03:44.914Z,37.41
2019-04-23T03:06:32.262Z,37.51
2019-04-23T03:09:23.000Z,37.52
2019-04-23T03:15:21.377Z,37.74
2019-04-23T03:21:27.053Z,37.78
2019-04-23T03:24:36.564Z,37.84
2019-04-23T03:27:17.036Z,37.83
2019-04-23T03:36:10.662Z,38.05
2019-04-23T03:41:39.666Z,38.13
2019-04-23T03:44:14.550Z,38.29
2019-04-23T03:47:13.832Z,38.27
2019-04-23T04:09:55.550Z,38.85
2019-04-23T04:12:49.959Z,38.92
2019-04-23T04:18:40.207Z,39.03
2019-04-23T04:21:29.925Z,39.11
2019-04-23T04:27:10.180Z,39.34
2019-04-23T04:32:59.081Z,39.44
2019-04-23T04:35:27.331Z,39.58
2019-04-23T04:41:28.995Z,39.66
2019-04-23T04:46:59.046Z,39.83
2019-04-23T04:55:41.774Z,39.94
2019-04-23T05:04:13.524Z,40.30
2019-04-23T05:10:01.620Z,40.54
2019-04-23T05:12:39.259Z,40.62
2019-04-23T05:15:28.236Z,40.63
2019-04-23T05:21:26.878Z,40.79
2019-04-23T05:30:07.487Z,41.03
2019-04-23T05:32:56.466Z,41.15
2019-04-23T05:38:43.774Z,41.30
2019-04-23T05:41:30.474Z,41.51
2019-04-23T05:47:11.729Z,41.50
2019-04-23T05:50:00.840Z,41.53
2019-04-23T05:53:10.151Z,41.71
2019-04-23T05:55:42.784Z,41.73
2019-04-23T05:58:28.711Z,41.73
2019-04-23T06:04:24.813Z,41.75
2019-04-23T06:10:02.846Z,41.89
2019-04-23T06:12:51.609Z,41.74
2019-04-23T06:18:38.954Z,41.82
2019-04-23T06:21:26.726Z,42.67
2019-04-23T06:24:24.978Z,42.33
2019-04-23T06:29:57.424Z,41.95
2019-04-23T06:32:55.157Z,41.84
2019-04-23T06:35:45.441Z,42.00
2019-04-23T06:41:21.215Z,41.49
2019-04-23T06:44:24.077Z,41.56
2019-04-23T06:47:08.290Z,41.34
2019-04-23T06:52:47.970Z,41.36
2019-04-23T06:55:44.045Z,41.26
2019-04-23T06:58:37.515Z,41.21
2019-04-23T07:01:20.502Z,41.04
2019-04-23T07:04:18.076Z,41.00
2019-04-23T07:07:31.386Z,41.00
2019-04-23T07:10:10.058Z,41.07
2019-04-23T07:12:49.364Z,40.75
2019-04-23T07:15:46.484Z,40.93
2019-04-23T07:18:31.566Z,40.68
2019-04-23T07:21:23.495Z,40.50
2019-04-23T07:24:29.898Z,40.31
2019-04-23T07:27:10.333Z,40.18
2019-04-23T07:32:49.874Z,39.81
2019-04-23T07:35:49.488Z,40.01
2019-04-23T07:42:29.303Z,39.06
2019-04-23T07:50:57.913Z,38.57
2019-04-23T07:54:01.341Z,38.44
2019-04-23T07:56:55.358Z,38.56
2019-04-23T07:59:43.108Z,37.93
2019-04-23T08:02:30.170Z,37.84
2019-04-23T08:05:36.234Z,37.60
2019-04-23T08:08:15.145Z,37.37
2019-04-23T08:14:00.571Z,37.55
2019-04-23T08:16:43.802Z,36.97
2019-04-23T08:19:53.080Z,36.88
2019-04-23T08:22:32.323Z,36.77
2019-04-23T08:25:56.441Z,36.47
2019-04-23T08:28:44.507Z,36.48
2019-04-23T08:31:32.048Z,36.35
2019-04-23T08:34:25.550Z,36.15
2019-04-23T08:37:08.912Z,36.16
2019-04-23T08:42:52.872Z,35.89
2019-04-23T08:45:50.093Z,35.36
2019-04-23T08:48:48.016Z,34.97
2019-04-23T08:51:54.946Z,34.85
2019-04-23T09:00:07.820Z,33.79
2019-04-23T09:03:00.215Z,33.47
2019-04-23T09:05:52.723Z,33.00
2019-04-23T09:08:37.537Z,33.15
2019-04-23T09:11:44.127Z,32.61
2019-04-23T09:14:22.911Z,32.19
2019-04-23T09:22:55.013Z,32.50
2019-04-23T09:25:55.846Z,32.54
2019-04-23T09:28:54.804Z,32.11
2019-04-23T09:32:07.617Z,32.25
2019-04-23T09:35:02.525Z,32.25
2019-04-23T09:38:03.625Z,32.26
2019-04-23T09:44:27.569Z,32.40
2019-04-23T09:47:19.493Z,32.39
2019-04-23T09:50:13.999Z,32.36
2019-04-23T09:53:09.709Z,32.40
2019-04-23T09:55:49.909Z,32.34
2019-04-23T09:58:34.652Z,32.47
2019-04-23T10:04:07.502Z,32.38
2019-04-23T10:07:01.982Z,31.84
2019-04-23T10:09:38.366Z,31.46
2019-04-23T10:12:28.188Z,31.68
2019-04-23T10:15:24.325Z,31.60
2019-04-23T10:18:10.082Z,31.44
2019-04-23T10:20:59.410Z,31.22
2019-04-23T10:23:49.598Z,31.17
2019-04-23T10:26:39.932Z,31.27
2019-04-23T10:29:34.222Z,31.26
2019-04-23T10:32:25.272Z,31.01
2019-04-23T10:35:29.177Z,30.50
2019-04-23T10:38:10.791Z,30.63
2019-04-23T10:41:04.494Z,30.56
2019-04-23T10:44:02.944Z,30.03
2019-04-23T10:47:59.405Z,29.82
2019-04-23T10:51:00.278Z,29.62
2019-04-23T10:54:03.489Z,29.43
2019-04-23T10:56:53.129Z,29.25
2019-04-23T11:02:40.268Z,28.78
2019-04-23T11:05:35.574Z,28.54
2019-04-23T11:08:17.404Z,28.05
2019-04-23T11:11:14.597Z,27.80
2019-04-23T11:14:15.422Z,27.23
2019-04-23T11:31:26.130Z,26.69
2019-04-23T11:34:26.631Z,26.43
2019-04-23T11:37:03.888Z,26.30
2019-04-23T11:40:01.742Z,26.15
2019-04-23T11:42:49.622Z,26.14
2019-04-23T11:45:38.796Z,25.90
2019-04-23T11:48:46.287Z,25.88
2019-04-23T11:54:10.368Z,25.74
2019-04-23T11:59:55.624Z,25.87
2019-04-23T12:02:55.986Z,25.60
2019-04-23T12:06:11.564Z,25.60
2019-04-23T12:09:14.513Z,25.46
2019-04-23T12:12:17.264Z,25.13
2019-04-23T12:17:55.917Z,24.97
2019-04-23T12:20:57.285Z,24.76
2019-04-23T12:24:00.702Z,24.69
2019-04-23T12:29:30.402Z,24.54
2019-04-23T12:35:21.461Z,24.82
2019-04-23T12:38:08.931Z,24.97
2019-04-23T12:40:56.117Z,25.12
2019-04-23T12:43:47.035Z,25.05
2019-04-23T12:46:49.136Z,25.23
2019-04-23T12:49:57.810Z,25.13
2019-04-23T12:52:35.973Z,25.40
2019-04-23T12:55:21.695Z,25.60
2019-04-23T12:58:12.974Z,25.86
2019-04-23T13:00:51.465Z,25.79
2019-04-23T13:03:47.381Z,26.08
2019-04-23T13:06:41.060Z,26.16
2019-04-23T13:18:10.800Z,26.18
2019-04-23T13:20:58.677Z,26.02
2019-04-23T13:24:04.160Z,26.13
2019-04-23T13:26:56.961Z,26.29
2019-04-23T13:29:51.856Z,26.33
2019-04-23T13:32:46.116Z,26.21
2019-04-23T13:35:59.551Z,26.30
2019-04-23T13:41:23.377Z,26.40
2019-04-23T13:43:56.950Z,26.25
2019-04-23T13:47:00.871Z,25.97
2019-04-23T13:49:51.165Z,25.90
2019-04-23T13:55:31.227Z,26.00
2019-04-23T13:58:43.394Z,26.03
2019-04-23T14:01:37.207Z,25.48
2019-04-23T14:04:16.199Z,25.00
2019-04-23T14:07:10.162Z,25.15
2019-04-23T14:10:04.623Z,25.46
2019-04-23T14:13:08.274Z,25.60
2019-04-23T14:16:01.856Z,25.84
2019-04-23T14:24:40.745Z,25.52
2019-04-23T14:27:18.041Z,25.35
2019-04-23T14:30:23.918Z,25.58
2019-04-23T14:32:55.842Z,25.57
2019-04-23T14:35:47.832Z,25.40
2019-04-23T14:38:41.688Z,25.82
2019-04-23T14:44:19.815Z,25.35
2019-04-23T14:50:29.405Z,25.24
2019-04-23T14:53:06.795Z,25.23
2019-04-23T14:55:56.995Z,25.13
2019-04-23T14:58:55.501Z,25.44
2019-04-23T15:01:35.823Z,25.23
2019-04-23T15:04:27.171Z,25.19
2019-04-23T15:13:00.028Z,25.51
2019-04-23T15:15:57.090Z,25.52
2019-04-23T15:22:03.344Z,25.72
2019-04-23T15:24:37.653Z,25.86
2019-04-23T15:28:04.002Z,25.93
2019-04-23T15:30:06.923Z,26.14
2019-04-23T15:36:25.269Z,26.15
2019-04-23T15:39:04.172Z,26.23
2019-04-23T15:44:32.349Z,26.38
2019-04-23T15:50:23.545Z,26.38
2019-04-23T15:53:06.850Z,26.54
2019-04-23T15:55:59.695Z,26.58
2019-04-23T15:59:03.998Z,26.57
2019-04-23T16:04:03.426Z,26.47
2019-04-23T16:06:54.053Z,26.53
2019-04-23T16:10:19.082Z,26.70
2019-04-23T16:13:02.309Z,26.81
2019-04-23T16:16:02.940Z,26.96
2019-04-23T16:19:00.239Z,26.93
2019-04-23T16:24:44.788Z,27.15
2019-04-23T16:27:21.539Z,27.22
2019-04-23T16:30:21.889Z,27.36
2019-04-23T16:38:58.563Z,27.74
2019-04-23T16:41:54.330Z,27.77
2019-04-23T16:45:07.524Z,27.79
2019-04-23T16:50:31.023Z,28.09
2019-04-23T16:56:28.875Z,28.33
2019-04-23T16:59:10.718Z,28.25
2019-04-23T17:02:03.514Z,28.46
2019-04-23T17:07:36.218Z,28.59
2019-04-23T17:13:24.099Z,28.88
2019-04-23T17:16:15.221Z,29.21
2019-04-23T17:19:04.765Z,29.30
2019-04-23T17:21:55.207Z,29.19
2019-04-23T17:24:40.420Z,29.46
2019-04-23T17:27:29.530Z,29.62
2019-04-23T17:39:21.312Z,30.22
2019-04-23T17:48:18.773Z,30.64
2019-04-23T17:51:11.570Z,30.74
2019-04-23T17:57:01.487Z,31.12
2019-04-23T18:00:04.971Z,31.33
2019-04-23T18:02:55.865Z,31.38
2019-04-23T18:05:40.674Z,31.46
2019-04-23T18:08:27.704Z,31.56
2019-04-23T18:14:08.420Z,31.78
2019-04-23T18:17:05.448Z,31.81
2019-04-23T18:20:08.231Z,31.92
2019-04-23T18:23:04.797Z,32.10
2019-04-23T18:25:55.060Z,32.22
2019-04-23T18:28:50.202Z,32.29
2019-04-23T18:31:49.119Z,32.49
2019-04-23T18:34:42.299Z,32.60
2019-04-23T18:37:23.765Z,32.73
2019-04-23T18:40:13.705Z,32.85
2019-04-23T18:43:17.193Z,33.00
2019-04-23T18:46:00.771Z,33.10
2019-04-23T18:51:41.746Z,33.32
2019-04-23T18:54:28.369Z,33.40
2019-04-23T19:00:18.634Z,33.63
2019-04-23T19:03:31.146Z,33.71
2019-04-23T19:09:32.040Z,33.95
2019-04-23T19:12:36.581Z,34.02
2019-04-23T19:15:33.674Z,34.16
2019-04-23T19:18:12.411Z,34.33
2019-04-23T19:21:08.961Z,34.43
2019-04-23T19:23:55.018Z,34.53
2019-04-23T19:29:47.876Z,34.81
2019-04-23T19:32:37.327Z,34.88
2019-04-23T19:35:43.896Z,35.01
2019-04-23T19:38:21.323Z,35.14
2019-04-23T19:41:01.701Z,35.22
2019-04-23T19:46:54.844Z,35.44
2019-04-23T19:49:40.630Z,35.65
2019-04-23T19:52:52.604Z,35.82
2019-04-23T19:55:24.371Z,35.94
2019-04-23T19:58:16.432Z,36.04
2019-04-23T20:03:52.552Z,36.23
2019-04-23T20:07:04.360Z,36.35
2019-04-23T20:15:14.240Z,36.57
2019-04-23T20:18:05.729Z,36.75
2019-04-23T20:21:08.311Z,36.87
2019-04-23T20:26:50.824Z,37.02
2019-04-23T20:35:51.520Z,37.23
2019-04-23T20:38:41.777Z,37.30
2019-04-23T20:42:02.336Z,37.40
2019-04-23T20:47:34.448Z,37.76
2019-04-23T20:50:34.782Z,37.79
2019-04-23T20:53:22.778Z,37.87
2019-04-23T20:56:27.147Z,37.94
2019-04-23T20:59:11.546Z,38.00
2019-04-23T21:02:28.393Z,38.01
2019-04-23T21:05:09.755Z,38.11
2019-04-23T21:08:34.304Z,38.14
2019-04-23T21:11:16.541Z,38.33
2019-04-23T21:14:22.607Z,38.48
2019-04-23T21:16:54.701Z,38.57
2019-04-23T21:19:59.770Z,38.54
2019-04-23T21:22:44.968Z,38.80
2019-04-23T21:25:43.155Z,38.81
2019-04-23T21:28:37.305Z,38.93
2019-04-23T21:31:28.335Z,38.99
2019-04-23T21:34:21.094Z,39.07
2019-04-23T21:37:43.366Z,39.24
2019-04-23T21:41:09.210Z,39.30
2019-04-23T21:44:05.384Z,39.44
2019-04-23T21:46:40.264Z,39.55
2019-04-23T21:49:39.037Z,39.63
2019-04-23T21:52:31.593Z,39.60
2019-04-23T21:55:09.759Z,39.75
2019-04-23T21:58:29.678Z,39.88
2019-04-23T22:01:20.517Z,39.98
2019-04-23T22:06:52.765Z,40.27
2019-04-23T22:09:50.404Z,40.43
2019-04-23T22:13:00.541Z,40.76
2019-04-23T22:18:35.199Z,40.73
2019-04-23T22:21:28.616Z,40.76
2019-04-23T22:24:12.315Z,40.91
2019-04-23T22:26:58.177Z,40.96
2019-04-23T22:29:54.548Z,40.93
2019-04-23T22:32:57.908Z,40.97
2019-04-23T22:35:43.179Z,41.11
2019-04-23T22:38:37.630Z,41.24
2019-04-23T22:41:16.147Z,41.26
2019-04-23T22:44:14.492Z,41.37
2019-04-23T22:47:02.616Z,41.63
2019-04-23T22:50:02.192Z,41.49
2019-04-23T22:52:53.715Z,41.64
2019-04-23T22:55:55.462Z,41.80
2019-04-23T22:58:35.429Z,41.79
2019-04-23T23:01:26.033Z,41.84
2019-04-23T23:10:12.963Z,42.20
2019-04-23T23:13:00.025Z,42.35
2019-04-23T23:15:50.721Z,42.43
2019-04-23T23:18:53.768Z,42.44
2019-04-23T23:21:29.155Z,42.45
2019-04-23T23:24:18.225Z,42.43
2019-04-23T23:27:10.288Z,42.45
2019-04-23T23:30:05.173Z,42.45
2019-04-23T23:32:57.129Z,42.57
2019-04-23T23:35:59.009Z,42.63
2019-04-23T23:41:43.803Z,42.76
2019-04-23T23:44:43.957Z,42.64
2019-04-23T23:47:37.586Z,42.63
2019-04-23T23:50:17.582Z,42.79
2019-04-23T23:53:11.751Z,42.94
2019-04-23T23:56:01.825Z,43.10
